createdAt,value
2018-09-13T00:05:47.260Z,1015.06
2018-09-13T00:06:52.946Z,1015.11
2018-09-13T00:07:47.135Z,1015.13
2018-09-13T00:08:47.112Z,1015.12
2018-09-13T00:09:47.082Z,1015.13
2018-09-13T00:10:48.067Z,1015.19
2018-09-13T00:11:47.039Z,1015.11
2018-09-13T00:12:49.013Z,1015.12
2018-09-13T00:13:46.977Z,1015.11
2018-09-13T00:14:48.971Z,1015.08
2018-09-13T00:15:46.929Z,1015.02
2018-09-13T00:16:52.439Z,1014.97
2018-09-13T00:17:46.870Z,1014.95
2018-09-13T00:18:52.454Z,1014.99
2018-09-13T00:19:46.830Z,1014.98
2018-09-13T00:20:47.806Z,1015.02
2018-09-13T00:21:46.780Z,1015.01
2018-09-13T00:22:46.762Z,1014.98
2018-09-13T00:23:46.747Z,1014.98
2018-09-13T00:24:47.707Z,1014.98
2018-09-13T00:25:46.686Z,1014.92
2018-09-13T00:26:51.433Z,1014.91
2018-09-13T00:27:46.638Z,1014.89
2018-09-13T00:28:47.620Z,1014.90
2018-09-13T00:29:46.570Z,1014.90
2018-09-13T00:30:46.559Z,1014.89
2018-09-13T00:31:46.526Z,1014.86
2018-09-13T00:32:47.518Z,1014.82
2018-09-13T00:33:47.428Z,1014.81
2018-09-13T00:34:46.467Z,1014.83
2018-09-13T00:35:46.437Z,1014.79
2018-09-13T00:36:46.408Z,1014.82
2018-09-13T00:37:46.387Z,1014.83
2018-09-13T00:39:40.726Z,1014.83
2018-09-13T00:40:40.675Z,1014.84
2018-09-13T00:41:40.637Z,1014.77
2018-09-13T00:42:40.629Z,1014.78
2018-09-13T00:43:40.594Z,1014.78
2018-09-13T00:44:41.576Z,1014.79
2018-09-13T00:45:40.564Z,1014.78
2018-09-13T00:46:40.526Z,1014.81
2018-09-13T00:47:40.506Z,1014.74
2018-09-13T00:48:40.477Z,1014.76
2018-09-13T00:49:40.442Z,1014.74
2018-09-13T00:50:40.417Z,1014.77
2018-09-13T00:51:40.423Z,1014.89
2018-09-13T00:52:40.371Z,1014.85
2018-09-13T00:53:40.338Z,1014.87
2018-09-13T00:54:40.329Z,1014.85
2018-09-13T00:55:40.293Z,1014.79
2018-09-13T00:56:40.273Z,1014.82
2018-09-13T00:57:40.255Z,1014.82
2018-09-13T00:58:40.245Z,1014.76
2018-09-13T00:59:40.191Z,1014.76
2018-09-13T01:00:40.185Z,1014.71
2018-09-13T01:01:40.145Z,1014.69
2018-09-13T01:02:40.130Z,1014.69
2018-09-13T01:03:40.092Z,1014.69
2018-09-13T01:04:40.072Z,1014.64
2018-09-13T01:05:40.038Z,1014.67
2018-09-13T01:06:41.039Z,1014.65
2018-09-13T01:07:39.992Z,1014.69
2018-09-13T01:08:39.977Z,1014.71
2018-09-13T01:09:39.937Z,1014.65
2018-09-13T01:10:39.945Z,1014.71
2018-09-13T01:11:39.900Z,1014.70
2018-09-13T01:12:39.864Z,1014.70
2018-09-13T01:13:39.846Z,1014.62
2018-09-13T01:14:40.848Z,1014.67
2018-09-13T01:15:39.789Z,1014.64
2018-09-13T01:16:39.775Z,1014.57
2018-09-13T01:17:39.734Z,1014.60
2018-09-13T01:18:39.730Z,1014.56
2018-09-13T01:19:39.685Z,1014.54
2018-09-13T01:20:40.671Z,1014.57
2018-09-13T01:21:39.636Z,1014.57
2018-09-13T01:22:39.621Z,1014.64
2018-09-13T01:23:39.589Z,1014.64
2018-09-13T01:25:28.455Z,1014.68
2018-09-13T01:26:28.389Z,1014.65
2018-09-13T01:27:28.380Z,1014.63
2018-09-13T01:28:28.356Z,1014.62
2018-09-13T01:29:28.328Z,1014.65
2018-09-13T01:30:28.297Z,1014.70
2018-09-13T01:31:28.273Z,1014.70
2018-09-13T01:32:28.237Z,1014.74
2018-09-13T01:33:29.222Z,1014.75
2018-09-13T01:34:28.194Z,1014.73
2018-09-13T01:35:28.174Z,1014.73
2018-09-13T01:36:28.141Z,1014.72
2018-09-13T01:37:28.119Z,1014.72
2018-09-13T01:38:28.093Z,1014.72
2018-09-13T01:39:28.070Z,1014.78
2018-09-13T01:40:28.050Z,1014.73
2018-09-13T01:41:28.036Z,1014.72
2018-09-13T01:42:28.001Z,1014.70
2018-09-13T01:43:27.976Z,1014.68
2018-09-13T01:44:27.963Z,1014.67
2018-09-13T01:45:27.915Z,1014.65
2018-09-13T01:46:27.887Z,1014.70
2018-09-13T01:47:27.878Z,1014.67
2018-09-13T01:48:27.847Z,1014.64
2018-09-13T01:49:27.824Z,1014.64
2018-09-13T01:50:27.784Z,1014.60
2018-09-13T01:51:27.769Z,1014.58
2018-09-13T01:52:27.741Z,1014.51
2018-09-13T01:53:27.729Z,1014.54
2018-09-13T01:54:27.683Z,1014.44
2018-09-13T01:55:28.671Z,1014.46
2018-09-13T01:56:27.638Z,1014.44
2018-09-13T01:58:20.524Z,1014.41
2018-09-13T01:59:21.473Z,1014.41
2018-09-13T02:00:20.442Z,1014.38
2018-09-13T02:01:20.436Z,1014.38
2018-09-13T02:02:20.397Z,1014.36
2018-09-13T02:03:21.377Z,1014.36
2018-09-13T02:04:20.338Z,1014.37
2018-09-13T02:05:20.315Z,1014.35
2018-09-13T02:06:20.302Z,1014.34
2018-09-13T02:07:20.275Z,1014.29
2018-09-13T02:08:20.240Z,1014.27
2018-09-13T02:09:20.226Z,1014.29
2018-09-13T02:10:20.192Z,1014.29
2018-09-13T02:11:20.197Z,1014.26
2018-09-13T02:12:20.158Z,1014.25
2018-09-13T02:13:20.114Z,1014.29
2018-09-13T02:14:20.092Z,1014.27
2018-09-13T02:15:21.074Z,1014.28
2018-09-13T02:16:20.035Z,1014.31
2018-09-13T02:17:21.018Z,1014.30
2018-09-13T02:18:19.983Z,1014.26
2018-09-13T02:19:19.961Z,1014.21
2018-09-13T02:20:19.941Z,1014.23
2018-09-13T02:21:20.926Z,1014.21
2018-09-13T02:22:19.881Z,1014.22
2018-09-13T02:23:19.866Z,1014.26
2018-09-13T02:24:19.827Z,1014.27
2018-09-13T02:25:20.813Z,1014.27
2018-09-13T02:26:19.776Z,1014.23
2018-09-13T02:27:19.800Z,1014.27
2018-09-13T02:28:19.740Z,1014.29
2018-09-13T02:29:19.720Z,1014.28
2018-09-13T02:30:19.675Z,1014.27
2018-09-13T02:31:19.666Z,1014.28
2018-09-13T02:32:19.626Z,1014.24
2018-09-13T02:33:19.610Z,1014.27
2018-09-13T02:34:19.579Z,1014.28
2018-09-13T02:35:19.560Z,1014.25
2018-09-13T02:36:19.524Z,1014.28
2018-09-13T02:37:19.504Z,1014.27
2018-09-13T02:38:19.477Z,1014.29
2018-09-13T02:39:19.457Z,1014.24
2018-09-13T02:40:19.428Z,1014.25
2018-09-13T02:41:19.407Z,1014.24
2018-09-13T02:42:19.388Z,1014.25
2018-09-13T02:43:19.359Z,1014.21
2018-09-13T02:44:19.323Z,1014.21
2018-09-13T02:45:21.314Z,1014.20
2018-09-13T02:46:19.272Z,1014.18
2018-09-13T02:47:20.251Z,1014.15
2018-09-13T02:48:19.235Z,1014.14
2018-09-13T02:49:19.304Z,1014.11
2018-09-13T02:50:19.171Z,1014.07
2018-09-13T02:51:20.159Z,1014.08
2018-09-13T02:52:19.116Z,1014.10
2018-09-13T02:53:20.111Z,1014.07
2018-09-13T02:54:19.079Z,1014.07
2018-09-13T02:55:21.046Z,1014.06
2018-09-13T02:56:19.019Z,1014.08
2018-09-13T02:57:21.003Z,1014.05
2018-09-13T02:58:18.969Z,1014.00
2018-09-13T02:59:18.953Z,1013.96
2018-09-13T03:00:18.912Z,1013.99
2018-09-13T03:01:19.905Z,1013.96
2018-09-13T03:02:18.867Z,1013.98
2018-09-13T03:03:18.875Z,1013.92
2018-09-13T03:04:18.814Z,1013.97
2018-09-13T03:05:18.787Z,1013.95
2018-09-13T03:06:18.765Z,1013.97
2018-09-13T03:07:18.736Z,1014.01
2018-09-13T03:08:18.790Z,1013.97
2018-09-13T03:09:21.265Z,1014.01
2018-09-13T03:10:18.661Z,1014.06
2018-09-13T03:11:18.643Z,1014.00
2018-09-13T03:12:18.623Z,1014.00
2018-09-13T03:13:18.605Z,1013.99
2018-09-13T03:14:18.562Z,1014.00
2018-09-13T03:15:18.541Z,1014.03
2018-09-13T03:16:18.508Z,1014.03
2018-09-13T03:17:18.494Z,1014.07
2018-09-13T03:18:18.458Z,1014.02
2018-09-13T03:19:18.445Z,1014.07
2018-09-13T03:20:18.410Z,1014.07
2018-09-13T03:21:18.406Z,1014.05
2018-09-13T03:22:18.361Z,1014.06
2018-09-13T03:23:18.341Z,1014.04
2018-09-13T03:24:18.302Z,1014.03
2018-09-13T03:25:18.287Z,1014.01
2018-09-13T03:26:18.259Z,1014.06
2018-09-13T03:27:18.238Z,1014.10
2018-09-13T03:28:18.205Z,1014.10
2018-09-13T03:29:18.187Z,1014.17
2018-09-13T03:30:18.169Z,1014.15
2018-09-13T03:31:18.139Z,1014.12
2018-09-13T03:32:18.131Z,1014.15
2018-09-13T03:33:18.093Z,1014.17
2018-09-13T03:34:18.060Z,1014.16
2018-09-13T03:35:18.034Z,1014.14
2018-09-13T03:36:18.079Z,1014.14
2018-09-13T03:37:18.065Z,1014.13
2018-09-13T03:38:17.956Z,1014.13
2018-09-13T03:39:17.993Z,1014.09
2018-09-13T03:40:17.969Z,1014.08
2018-09-13T03:41:18.891Z,1014.07
2018-09-13T03:42:17.861Z,1014.08
2018-09-13T03:43:17.841Z,1014.09
2018-09-13T03:44:17.809Z,1014.04
2018-09-13T03:45:17.788Z,1014.09
2018-09-13T03:46:17.755Z,1014.07
2018-09-13T03:47:17.726Z,1014.11
2018-09-13T03:48:17.697Z,1014.10
2018-09-13T12:03:16.038Z,1014.10
2018-09-13T12:04:15.944Z,1014.10
2018-09-13T12:05:20.733Z,1014.07
2018-09-13T12:06:15.913Z,1014.09
2018-09-13T12:07:15.881Z,1014.07
2018-09-13T12:08:15.844Z,1014.03
2018-09-13T12:09:16.825Z,1014.02
2018-09-13T12:10:15.788Z,1013.99
2018-09-13T12:11:15.778Z,1014.05
2018-09-13T12:12:15.755Z,1014.05
2018-09-13T12:13:20.685Z,1014.06
2018-09-13T12:14:15.703Z,1014.00
2018-09-13T12:15:20.233Z,1014.00
2018-09-13T12:16:15.640Z,1014.00
2018-09-13T12:17:15.619Z,1014.00
2018-09-13T12:18:15.644Z,1013.96
2018-09-13T12:19:15.656Z,1013.98
2018-09-13T12:20:15.547Z,1013.99
2018-09-13T12:21:16.527Z,1013.96
2018-09-13T12:22:15.614Z,1013.94
2018-09-13T12:23:15.468Z,1013.92
2018-09-13T12:24:15.470Z,1013.93
2018-09-13T12:25:18.818Z,1013.94
2018-09-13T12:26:23.582Z,1013.90
2018-09-13T12:27:18.795Z,1013.97
2018-09-13T12:28:18.727Z,1014.00
2018-09-13T12:29:18.709Z,1013.93
2018-09-13T12:30:19.676Z,1013.92
2018-09-13T12:31:18.657Z,1013.92
2018-09-13T12:32:18.619Z,1013.89
2018-09-13T12:33:18.594Z,1013.91
2018-09-13T12:34:18.575Z,1013.95
2018-09-13T12:35:18.544Z,1013.91
2018-09-13T12:36:25.077Z,1013.91
2018-09-13T12:37:18.498Z,1013.92
2018-09-13T12:38:20.494Z,1013.90
2018-09-13T12:39:18.458Z,1013.88
2018-09-13T12:41:09.067Z,1013.91
2018-09-13T12:42:09.996Z,1013.86
2018-09-13T12:43:08.970Z,1013.84
2018-09-13T12:44:08.952Z,1013.84
2018-09-13T12:45:08.918Z,1013.84
2018-09-13T12:46:08.908Z,1013.82
2018-09-13T12:47:08.864Z,1013.81
2018-09-13T12:48:08.849Z,1013.79
2018-09-13T12:49:08.820Z,1013.80
2018-09-13T12:50:09.833Z,1013.78
2018-09-13T12:51:08.775Z,1013.80
2018-09-13T12:52:09.796Z,1013.77
2018-09-13T12:53:08.717Z,1013.78
2018-09-13T12:54:08.703Z,1013.75
2018-09-13T12:55:08.705Z,1013.74
2018-09-13T12:56:08.659Z,1013.79
2018-09-13T12:57:08.632Z,1013.73
2018-09-13T12:58:08.603Z,1013.72
2018-09-13T12:59:08.573Z,1013.67
2018-09-13T13:00:09.551Z,1013.73
2018-09-13T13:01:08.529Z,1013.70
2018-09-13T13:02:13.277Z,1013.71
2018-09-13T13:03:08.465Z,1013.71
2018-09-13T13:04:08.444Z,1013.71
2018-09-13T13:05:08.417Z,1013.70
2018-09-13T13:06:08.405Z,1013.73
2018-09-13T13:07:08.375Z,1013.67
2018-09-13T13:08:08.350Z,1013.70
2018-09-13T13:09:08.347Z,1013.69
2018-09-13T13:10:14.290Z,1013.71
2018-09-13T13:11:08.275Z,1013.70
2018-09-13T13:12:08.265Z,1013.69
2018-09-13T13:13:08.220Z,1013.66
2018-09-13T13:14:10.202Z,1013.68
2018-09-13T13:15:08.213Z,1013.70
2018-09-13T13:16:08.155Z,1013.67
2018-09-13T13:17:08.117Z,1013.73
2018-09-13T13:19:05.002Z,1013.64
2018-09-13T13:20:06.969Z,1013.65
2018-09-13T13:21:04.952Z,1013.67
2018-09-13T13:22:05.922Z,1013.64
2018-09-13T13:23:04.888Z,1013.59
2018-09-13T13:24:04.858Z,1013.63
2018-09-13T13:25:04.832Z,1013.61
2018-09-13T13:26:05.815Z,1013.59
2018-09-13T13:27:04.831Z,1013.60
2018-09-13T13:28:06.766Z,1013.57
2018-09-13T13:29:04.724Z,1013.61
2018-09-13T13:30:04.724Z,1013.58
2018-09-13T13:31:04.688Z,1013.57
2018-09-13T13:32:06.680Z,1013.54
2018-09-13T13:33:04.628Z,1013.61
2018-09-13T13:34:04.608Z,1013.56
2018-09-13T13:35:04.576Z,1013.54
2018-09-13T13:36:04.572Z,1013.51
2018-09-13T13:37:04.534Z,1013.51
2018-09-13T13:38:04.508Z,1013.53
2018-09-13T13:39:04.493Z,1013.50
2018-09-13T13:40:05.491Z,1013.51
2018-09-13T13:41:04.496Z,1013.48
2018-09-13T13:42:04.414Z,1013.47
2018-09-13T13:43:04.399Z,1013.43
2018-09-13T13:45:02.239Z,1013.45
2018-09-13T13:46:02.108Z,1013.42
2018-09-13T13:47:02.130Z,1013.40
2018-09-13T13:48:02.065Z,1013.40
2018-09-13T13:49:02.068Z,1013.37
2018-09-13T13:50:03.033Z,1013.34
2018-09-13T13:51:02.017Z,1013.39
2018-09-13T13:52:01.975Z,1013.33
2018-09-13T13:53:01.937Z,1013.34
2018-09-13T13:54:01.922Z,1013.40
2018-09-13T13:55:01.924Z,1013.38
2018-09-13T13:56:01.872Z,1013.35
2018-09-13T13:57:01.928Z,1013.35
2018-09-13T13:58:01.861Z,1013.35
2018-09-13T13:59:01.803Z,1013.34
2018-09-13T14:00:02.774Z,1013.32
2018-09-13T14:01:01.799Z,1013.36
2018-09-13T14:02:01.730Z,1013.32
2018-09-13T14:03:01.699Z,1013.35
2018-09-13T14:04:02.693Z,1013.32
2018-09-13T14:05:01.648Z,1013.34
2018-09-13T14:06:01.628Z,1013.28
2018-09-13T14:07:01.599Z,1013.30
2018-09-13T14:08:01.581Z,1013.32
2018-09-13T14:09:01.557Z,1013.32
2018-09-13T14:10:02.585Z,1013.31
2018-09-13T14:11:01.496Z,1013.35
2018-09-13T14:12:01.475Z,1013.38
2018-09-13T14:13:01.473Z,1013.34
2018-09-13T14:14:01.430Z,1013.32
2018-09-13T14:15:01.449Z,1013.30
2018-09-13T14:16:01.385Z,1013.33
2018-09-13T14:17:01.359Z,1013.34
2018-09-13T14:18:01.326Z,1013.35
2018-09-13T14:19:01.303Z,1013.35
2018-09-13T14:20:01.306Z,1013.35
2018-09-13T14:21:01.264Z,1013.33
2018-09-13T14:22:02.268Z,1013.36
2018-09-13T14:23:01.236Z,1013.33
2018-09-13T14:24:01.181Z,1013.37
2018-09-13T14:25:47.399Z,1013.37
2018-09-13T14:26:47.375Z,1013.34
2018-09-13T14:27:47.334Z,1013.33
2018-09-13T14:28:47.300Z,1013.32
2018-09-13T14:29:47.349Z,1013.38
2018-09-13T14:30:47.258Z,1013.31
2018-09-13T14:31:47.233Z,1013.32
2018-09-13T14:32:47.209Z,1013.30
2018-09-13T14:33:47.182Z,1013.33
2018-09-13T14:34:47.165Z,1013.31
2018-09-13T14:35:47.126Z,1013.29
2018-09-13T14:36:47.120Z,1013.28
2018-09-13T14:37:47.101Z,1013.27
2018-09-13T14:38:47.056Z,1013.26
2018-09-13T14:39:47.031Z,1013.21
2018-09-13T14:40:47.014Z,1013.22
2018-09-13T14:41:46.979Z,1013.23
2018-09-13T14:42:47.791Z,1013.20
2018-09-13T14:43:46.942Z,1013.19
2018-09-13T14:44:46.915Z,1013.23
2018-09-13T14:45:46.919Z,1013.22
2018-09-13T14:46:46.860Z,1013.20
2018-09-13T14:47:46.844Z,1013.17
2018-09-13T14:48:46.820Z,1013.16
2018-09-13T14:49:46.879Z,1013.16
2018-09-13T14:50:46.860Z,1013.19
2018-09-13T14:51:46.731Z,1013.17
2018-09-13T14:52:46.728Z,1013.17
2018-09-13T14:53:46.687Z,1013.18
2018-09-13T14:54:46.715Z,1013.14
2018-09-13T14:55:46.634Z,1013.16
2018-09-13T14:56:47.626Z,1013.11
2018-09-13T14:57:46.576Z,1013.13
2018-09-13T14:58:46.580Z,1013.19
2018-09-13T14:59:46.537Z,1013.21
2018-09-13T15:00:46.510Z,1013.20
2018-09-13T15:01:46.481Z,1013.15
2018-09-13T15:02:46.461Z,1013.13
2018-09-13T15:03:46.460Z,1013.13
2018-09-13T15:04:46.538Z,1013.12
2018-09-13T15:05:46.390Z,1013.11
2018-09-13T15:06:46.381Z,1013.12
2018-09-13T15:07:46.338Z,1013.11
2018-09-13T15:08:46.312Z,1013.05
2018-09-13T15:09:46.302Z,1013.04
2018-09-13T15:10:46.287Z,1013.04
2018-09-13T15:11:46.235Z,1013.03
2018-09-13T15:12:46.248Z,1013.03
2018-09-13T15:13:46.195Z,1013.04
2018-09-13T15:14:46.169Z,1012.99
2018-09-13T15:15:46.135Z,1012.99
2018-09-13T15:16:46.120Z,1012.98
2018-09-13T15:17:46.099Z,1013.00
2018-09-13T15:18:46.107Z,1013.01
2018-09-13T15:19:46.044Z,1013.01
2018-09-13T15:20:46.032Z,1013.01
2018-09-13T15:21:46.008Z,1013.04
2018-09-13T15:22:45.988Z,1012.99
2018-09-13T15:23:45.950Z,1013.00
2018-09-13T15:24:45.994Z,1013.00
2018-09-13T15:25:45.901Z,1013.01
2018-09-13T15:26:45.887Z,1012.99
2018-09-13T15:27:45.847Z,1012.98
2018-09-13T15:28:45.859Z,1012.95
2018-09-13T15:29:45.810Z,1012.99
2018-09-13T15:30:45.778Z,1012.95
2018-09-13T15:31:45.750Z,1012.95
2018-09-13T15:32:45.739Z,1012.95
2018-09-13T15:33:45.710Z,1012.91
2018-09-13T15:34:45.679Z,1012.95
2018-09-13T15:35:45.665Z,1012.96
2018-09-13T15:36:45.655Z,1012.93
2018-09-13T15:37:45.604Z,1012.95
2018-09-13T15:38:45.605Z,1012.93
2018-09-13T15:39:45.554Z,1012.93
2018-09-13T15:40:45.533Z,1012.89
2018-09-13T15:41:45.510Z,1012.94
2018-09-13T15:42:45.484Z,1012.97
2018-09-13T15:43:45.494Z,1012.94
2018-09-13T15:44:45.455Z,1012.90
2018-09-13T15:45:45.415Z,1012.88
2018-09-13T15:46:45.392Z,1012.89
2018-09-13T15:47:45.365Z,1012.89
2018-09-13T15:48:45.343Z,1012.89
2018-09-13T15:49:45.312Z,1012.90
2018-09-13T15:50:45.287Z,1012.91
2018-09-13T15:51:45.258Z,1012.92
2018-09-13T15:52:45.305Z,1012.93
2018-09-13T15:53:45.240Z,1012.87
2018-09-13T15:54:45.204Z,1012.93
2018-09-13T15:55:45.162Z,1012.90
2018-09-13T15:56:47.157Z,1012.92
2018-09-13T15:57:45.123Z,1012.91
2018-09-13T15:58:46.106Z,1012.91
2018-09-13T15:59:45.075Z,1012.95
2018-09-13T16:00:45.075Z,1012.91
2018-09-13T16:01:45.037Z,1012.94
2018-09-13T16:02:45.021Z,1012.96
2018-09-13T16:03:44.975Z,1012.90
2018-09-13T16:04:44.969Z,1012.89
2018-09-13T16:05:44.929Z,1012.94
2018-09-13T16:06:44.928Z,1012.95
2018-09-13T16:07:44.873Z,1012.96
2018-09-13T16:08:44.899Z,1012.94
2018-09-13T16:09:44.834Z,1012.95
2018-09-13T16:10:44.808Z,1012.93
2018-09-13T16:11:44.775Z,1012.90
2018-09-13T16:12:44.821Z,1012.94
2018-09-13T16:13:44.723Z,1012.96
2018-09-13T16:14:44.707Z,1012.98
2018-09-13T16:15:44.682Z,1012.99
2018-09-13T16:16:45.659Z,1012.98
2018-09-13T16:17:44.628Z,1012.98
2018-09-13T16:18:44.620Z,1012.96
2018-09-13T16:19:44.582Z,1012.99
2018-09-13T16:20:44.571Z,1012.99
2018-09-13T16:21:44.532Z,1012.98
2018-09-13T16:22:44.517Z,1012.97
2018-09-13T16:23:44.482Z,1012.96
2018-09-13T16:24:44.477Z,1012.97
2018-09-13T16:25:44.445Z,1012.95
2018-09-13T16:26:44.420Z,1012.93
2018-09-13T16:27:44.390Z,1012.96
2018-09-13T16:28:44.388Z,1012.91
2018-09-13T16:29:44.334Z,1012.91
2018-09-13T16:30:45.356Z,1012.92
2018-09-13T16:31:44.309Z,1012.87
2018-09-13T16:32:44.270Z,1012.88
2018-09-13T16:33:44.266Z,1012.90
2018-09-13T16:34:44.279Z,1012.87
2018-09-13T16:35:44.187Z,1012.86
2018-09-13T16:36:44.187Z,1012.88
2018-09-13T16:37:44.148Z,1012.89
2018-09-13T16:38:44.127Z,1012.85
2018-09-13T16:40:34.013Z,1012.86
2018-09-13T16:41:33.958Z,1012.87
2018-09-13T16:42:33.948Z,1012.84
2018-09-13T16:43:33.904Z,1012.84
2018-09-13T16:44:33.876Z,1012.84
2018-09-13T16:45:33.856Z,1012.82
2018-09-13T16:46:33.833Z,1012.85
2018-09-13T16:47:34.907Z,1012.84
2018-09-13T16:48:33.801Z,1012.83
2018-09-13T16:49:33.769Z,1012.81
2018-09-13T16:50:33.752Z,1012.83
2018-09-13T16:51:34.722Z,1012.88
2018-09-13T16:52:33.715Z,1012.86
2018-09-13T16:53:33.681Z,1012.88
2018-09-13T16:54:33.650Z,1012.85
2018-09-13T16:55:33.616Z,1012.90
2018-09-13T16:56:33.641Z,1012.90
2018-09-13T16:57:33.568Z,1012.89
2018-09-13T16:58:33.592Z,1012.92
2018-09-13T16:59:33.523Z,1012.94
2018-09-13T17:00:33.505Z,1012.93
2018-09-13T17:01:33.471Z,1012.90
2018-09-13T17:02:33.481Z,1012.89
2018-09-13T17:03:33.441Z,1012.90
2018-09-13T17:05:19.642Z,1012.91
2018-09-13T17:06:19.641Z,1012.91
2018-09-13T17:07:19.685Z,1012.89
2018-09-13T17:08:19.569Z,1012.90
2018-09-13T17:09:19.600Z,1012.89
2018-09-13T17:10:19.529Z,1012.95
2018-09-13T17:11:19.506Z,1012.98
2018-09-13T17:12:19.479Z,1012.94
2018-09-13T17:13:19.513Z,1012.96
2018-09-13T17:14:19.431Z,1012.90
2018-09-13T17:15:19.434Z,1012.99
2018-09-13T17:16:19.399Z,1012.93
2018-09-13T17:17:20.494Z,1012.93
2018-09-13T17:18:19.352Z,1012.96
2018-09-13T17:19:19.317Z,1012.96
2018-09-13T17:20:19.286Z,1012.96
2018-09-13T17:21:19.259Z,1012.96
2018-09-13T17:22:19.232Z,1012.96
2018-09-13T17:23:19.282Z,1012.94
2018-09-13T17:24:19.192Z,1012.93
2018-09-13T17:25:19.153Z,1012.95
2018-09-13T17:26:19.148Z,1012.97
2018-09-13T17:27:19.122Z,1012.95
2018-09-13T17:28:19.110Z,1012.99
2018-09-13T17:29:19.074Z,1013.00
2018-09-13T17:30:19.132Z,1013.01
2018-09-13T17:31:19.021Z,1012.99
2018-09-13T17:32:19.040Z,1013.00
2018-09-13T17:33:19.012Z,1012.99
2018-09-13T17:34:18.946Z,1013.00
2018-09-13T17:35:18.968Z,1012.97
2018-09-13T17:36:18.922Z,1013.03
2018-09-13T17:37:18.888Z,1013.04
2018-09-13T17:38:18.851Z,1013.02
2018-09-13T17:39:18.841Z,1013.02
2018-09-13T17:40:18.893Z,1013.03
2018-09-13T17:42:05.354Z,1013.03
2018-09-13T17:43:05.323Z,1013.04
2018-09-13T17:44:05.302Z,1013.03
2018-09-13T17:45:05.272Z,1013.05
2018-09-13T17:46:05.248Z,1013.04
2018-09-13T17:47:05.223Z,1013.04
2018-09-13T17:48:05.260Z,1013.04
2018-09-13T17:49:05.182Z,1013.01
2018-09-13T17:50:05.162Z,1013.02
2018-09-13T17:51:05.155Z,1013.03
2018-09-13T17:52:05.186Z,1013.05
2018-09-13T17:53:05.111Z,1013.06
2018-09-13T17:54:09.673Z,1013.05
2018-09-13T17:55:05.030Z,1013.08
2018-09-13T17:56:05.073Z,1013.03
2018-09-13T17:57:04.990Z,1013.04
2018-09-13T17:58:04.965Z,1013.06
2018-09-13T17:59:04.943Z,1013.04
2018-09-13T18:00:05.011Z,1013.05
2018-09-13T18:01:04.890Z,1013.09
2018-09-13T18:02:04.960Z,1013.06
2018-09-13T18:03:04.842Z,1013.03
2018-09-13T18:04:04.816Z,1013.05
2018-09-13T18:05:04.789Z,1013.07
2018-09-13T18:06:04.771Z,1013.06
2018-09-13T18:07:04.750Z,1013.06
2018-09-13T18:08:04.773Z,1013.05
2018-09-13T18:09:04.744Z,1013.05
2018-09-13T18:10:04.763Z,1013.07
2018-09-13T18:11:04.701Z,1013.10
2018-09-13T18:12:04.693Z,1013.13
2018-09-13T18:13:04.595Z,1013.13
2018-09-13T18:14:04.710Z,1013.11
2018-09-13T18:15:04.580Z,1013.13
2018-09-13T18:16:04.594Z,1013.10
2018-09-13T18:17:04.507Z,1013.11
2018-09-13T18:18:04.487Z,1013.11
2018-09-13T18:19:04.456Z,1013.11
2018-09-13T18:20:04.445Z,1013.12
2018-09-13T18:21:04.401Z,1013.10
2018-09-13T18:22:04.391Z,1013.08
2018-09-13T18:23:04.372Z,1013.09
2018-09-13T18:24:04.374Z,1013.15
2018-09-13T18:25:04.306Z,1013.15
2018-09-13T18:26:04.293Z,1013.15
2018-09-13T18:27:04.261Z,1013.17
2018-09-13T18:28:04.374Z,1013.17
2018-09-13T18:29:04.207Z,1013.18
2018-09-13T18:30:04.279Z,1013.16
2018-09-13T18:31:04.170Z,1013.19
2018-09-13T18:32:04.136Z,1013.21
2018-09-13T18:33:04.117Z,1013.19
2018-09-13T18:34:04.094Z,1013.21
2018-09-13T18:35:04.086Z,1013.24
2018-09-13T18:36:04.063Z,1013.29
2018-09-13T18:37:04.021Z,1013.25
2018-09-13T18:38:04.073Z,1013.26
2018-09-13T18:39:03.980Z,1013.28
2018-09-13T18:40:03.967Z,1013.33
2018-09-13T18:41:03.925Z,1013.30
2018-09-13T18:42:50.064Z,1013.36
2018-09-13T18:43:50.025Z,1013.32
2018-09-13T18:45:43.639Z,1013.37
2018-09-13T18:46:43.512Z,1013.38
2018-09-13T18:47:43.472Z,1013.38
2018-09-13T18:48:43.458Z,1013.36
2018-09-13T18:49:43.427Z,1013.38
2018-09-13T18:50:43.383Z,1013.44
2018-09-13T18:51:43.381Z,1013.45
2018-09-13T18:52:43.356Z,1013.50
2018-09-13T18:53:43.425Z,1013.46
2018-09-13T18:54:43.276Z,1013.48
2018-09-13T18:55:43.269Z,1013.47
2018-09-13T18:56:43.248Z,1013.56
2018-09-13T18:57:43.279Z,1013.55
2018-09-13T18:58:43.185Z,1013.54
2018-09-13T18:59:43.275Z,1013.57
2018-09-13T19:00:43.234Z,1013.55
2018-09-13T19:01:43.111Z,1013.52
2018-09-13T19:02:43.081Z,1013.56
2018-09-13T19:03:43.176Z,1013.56
2018-09-13T19:04:43.032Z,1013.56
2018-09-13T19:05:43.014Z,1013.52
2018-09-13T19:06:42.989Z,1013.54
2018-09-13T19:07:42.990Z,1013.56
2018-09-13T19:08:42.944Z,1013.60
2018-09-13T19:09:42.905Z,1013.61
2018-09-13T19:11:29.135Z,1013.65
2018-09-13T19:12:29.018Z,1013.65
2018-09-13T19:13:30.008Z,1013.67
2018-09-13T19:14:28.967Z,1013.66
2018-09-13T19:15:28.948Z,1013.68
2018-09-13T19:16:29.006Z,1013.66
2018-09-13T19:17:28.895Z,1013.66
2018-09-13T19:18:28.928Z,1013.64
2018-09-13T19:19:28.847Z,1013.66
2018-09-13T19:20:28.929Z,1013.65
2018-09-13T19:21:28.808Z,1013.63
2018-09-13T19:22:29.867Z,1013.63
2018-09-13T19:23:28.743Z,1013.64
2018-09-13T19:24:28.856Z,1013.67
2018-09-13T19:25:28.761Z,1013.64
2018-09-13T19:27:25.828Z,1013.72
2018-09-13T19:28:25.751Z,1013.69
2018-09-13T19:29:25.705Z,1013.73
2018-09-13T19:30:25.691Z,1013.74
2018-09-13T19:31:25.657Z,1013.73
2018-09-13T19:32:25.635Z,1013.78
2018-09-13T19:33:25.614Z,1013.76
2018-09-13T19:34:25.700Z,1013.76
2018-09-13T19:35:25.577Z,1013.77
2018-09-13T19:36:25.545Z,1013.75
2018-09-13T19:37:25.630Z,1013.80
2018-09-13T19:38:25.486Z,1013.78
2018-09-13T19:39:25.571Z,1013.74
2018-09-13T19:40:25.455Z,1013.82
2018-09-13T19:41:25.550Z,1013.82
2018-09-13T19:42:25.392Z,1013.78
2018-09-13T19:43:25.380Z,1013.80
2018-09-13T19:44:25.334Z,1013.83
2018-09-13T19:45:25.328Z,1013.80
2018-09-13T19:47:14.105Z,1013.86
2018-09-13T19:48:14.024Z,1013.84
2018-09-13T19:49:15.036Z,1013.83
2018-09-13T19:50:13.897Z,1013.82
2018-09-13T19:51:14.027Z,1013.88
2018-09-13T19:52:13.847Z,1013.86
2018-09-13T19:53:13.831Z,1013.89
2018-09-13T19:54:13.794Z,1013.86
2018-09-13T19:55:14.863Z,1013.88
2018-09-13T19:56:13.743Z,1013.89
2018-09-13T19:57:13.722Z,1013.90
2018-09-13T19:58:14.786Z,1013.89
2018-09-13T19:59:13.659Z,1013.92
2018-09-13T20:00:13.646Z,1013.93
2018-09-13T20:01:13.617Z,1013.91
2018-09-13T20:02:13.592Z,1013.92
2018-09-13T20:03:13.568Z,1013.89
2018-09-13T20:04:14.631Z,1013.88
2018-09-13T20:05:13.515Z,1013.90
2018-09-13T20:06:14.528Z,1013.95
2018-09-13T20:07:13.495Z,1013.93
2018-09-13T20:08:13.442Z,1013.97
2018-09-13T20:09:13.525Z,1013.91
2018-09-13T20:10:13.389Z,1013.90
2018-09-13T20:11:15.422Z,1013.91
2018-09-13T20:12:13.359Z,1013.89
2018-09-13T20:13:15.403Z,1013.87
2018-09-13T20:14:13.362Z,1013.83
2018-09-13T20:15:14.281Z,1013.85
2018-09-13T20:16:13.240Z,1013.89
2018-09-13T20:17:13.332Z,1013.87
2018-09-13T20:18:13.306Z,1013.92
2018-09-13T20:19:14.279Z,1013.89
2018-09-13T20:20:13.173Z,1013.89
2018-09-13T20:21:13.295Z,1013.88
2018-09-13T20:22:13.095Z,1013.91
2018-09-13T20:23:13.188Z,1013.92
2018-09-13T20:24:13.042Z,1013.91
2018-09-13T20:25:13.125Z,1013.87
2018-09-13T20:26:12.999Z,1013.90
2018-09-13T20:27:15.136Z,1013.88
2018-09-13T20:31:04.114Z,1013.93
2018-09-13T20:32:05.204Z,1013.93
2018-09-13T20:33:04.090Z,1013.95
2018-09-13T20:34:04.045Z,1013.90
2018-09-13T20:35:04.069Z,1013.94
2018-09-13T20:36:04.104Z,1013.93
2018-09-13T20:37:05.257Z,1013.90
2018-09-13T20:38:03.971Z,1013.89
2018-09-13T20:39:04.281Z,1013.90
2018-09-13T20:40:03.895Z,1013.92